createdAt,value
2023-03-01T00:01:06.921Z,58.77
2023-03-01T00:03:34.076Z,59.26
2023-03-01T00:06:01.466Z,59.61
2023-03-01T00:08:28.935Z,59.42
2023-03-01T00:11:18.100Z,59.68
2023-03-01T00:13:45.697Z,59.85
2023-03-01T00:16:16.133Z,59.99
2023-03-01T00:18:42.951Z,60.14
2023-03-01T00:21:09.780Z,60.44
2023-03-01T00:23:36.898Z,60.63
2023-03-01T00:26:07.515Z,60.89
2023-03-01T00:28:34.352Z,61.01
2023-03-01T00:31:09.267Z,60.96
2023-03-01T00:33:35.988Z,60.70
2023-03-01T00:36:02.832Z,60.22
2023-03-01T00:38:30.074Z,60.51
2023-03-01T00:40:56.854Z,60.75
2023-03-01T00:43:23.554Z,60.30
2023-03-01T00:45:50.421Z,60.49
2023-03-01T00:48:17.279Z,60.88
2023-03-01T00:50:43.878Z,61.05
2023-03-01T00:53:10.638Z,61.20
2023-03-01T00:55:37.465Z,61.28
2023-03-01T00:58:04.168Z,61.09
2023-03-01T01:00:30.809Z,61.18
2023-03-01T01:02:57.413Z,61.10
2023-03-01T01:05:24.102Z,61.37
2023-03-01T01:07:51.023Z,61.62
2023-03-01T01:10:18.162Z,61.67
2023-03-01T01:12:46.743Z,61.61
2023-03-01T01:15:15.268Z,61.93
2023-03-01T01:17:42.254Z,61.93
2023-03-01T01:20:09.930Z,61.90
2023-03-01T01:22:36.578Z,62.08
2023-03-01T01:25:03.279Z,62.32
2023-03-01T01:27:30.920Z,62.35
2023-03-01T01:29:57.640Z,62.52
2023-03-01T01:32:26.728Z,62.26
2023-03-01T01:34:53.822Z,62.32
2023-03-01T01:37:20.781Z,62.19
2023-03-01T01:39:47.527Z,62.06
2023-03-01T01:42:18.898Z,62.34
2023-03-01T01:44:49.035Z,62.65
2023-03-01T01:47:21.660Z,62.45
2023-03-01T01:49:57.604Z,62.75
2023-03-01T01:52:34.972Z,63.18
2023-03-01T01:55:06.658Z,63.48
2023-03-01T01:57:35.812Z,63.39
2023-03-01T02:00:08.557Z,63.34
2023-03-01T02:02:35.316Z,63.58
2023-03-01T02:05:18.094Z,63.32
2023-03-01T02:07:45.751Z,63.42
2023-03-01T02:10:12.334Z,63.41
2023-03-01T02:12:39.841Z,63.23
2023-03-01T02:15:06.938Z,63.48
2023-03-01T02:17:33.761Z,63.65
2023-03-01T02:20:16.563Z,63.60
2023-03-01T02:22:44.873Z,63.37
2023-03-01T02:25:19.304Z,63.72
2023-03-01T02:28:18.515Z,63.79
2023-03-01T02:31:05.678Z,63.73
2023-03-01T02:33:34.464Z,63.91
2023-03-01T02:36:02.112Z,63.78
2023-03-01T02:38:29.130Z,63.79
2023-03-01T02:40:55.912Z,63.80
2023-03-01T02:43:24.314Z,63.96
2023-03-01T02:45:52.376Z,63.86
2023-03-01T02:48:20.088Z,64.08
2023-03-01T02:51:04.960Z,63.99
2023-03-01T02:53:50.139Z,64.27
2023-03-01T02:56:16.858Z,64.44
2023-03-01T02:58:46.310Z,64.61
2023-03-01T03:01:16.082Z,65.01
2023-03-01T03:03:43.466Z,65.18
2023-03-01T03:06:10.331Z,65.25
2023-03-01T03:08:37.109Z,65.32
2023-03-01T03:11:03.979Z,65.51
2023-03-01T03:13:30.792Z,66.12
2023-03-01T03:15:57.570Z,65.54
2023-03-01T03:18:26.994Z,65.52
2023-03-01T03:20:54.644Z,65.58
2023-03-01T03:23:22.439Z,65.51
2023-03-01T03:25:50.887Z,65.75
2023-03-01T03:28:18.192Z,65.75
2023-03-01T03:30:45.452Z,65.72
2023-03-01T03:33:13.847Z,65.61
2023-03-01T03:35:48.877Z,65.35
2023-03-01T03:38:18.053Z,65.18
2023-03-01T03:40:46.018Z,65.44
2023-03-01T03:43:18.279Z,65.71
2023-03-01T03:45:46.021Z,65.67
2023-03-01T03:48:12.832Z,65.77
2023-03-01T03:50:40.441Z,66.38
2023-03-01T03:53:10.026Z,66.47
2023-03-01T03:55:40.356Z,66.59
2023-03-01T03:58:09.356Z,66.76
2023-03-01T04:00:38.584Z,66.83
2023-03-01T04:03:05.839Z,67.03
2023-03-01T04:05:32.583Z,67.18
2023-03-01T04:08:02.592Z,67.27
2023-03-01T04:10:31.421Z,67.28
2023-03-01T04:12:58.330Z,67.21
2023-03-01T04:15:26.195Z,67.34
2023-03-01T04:17:54.363Z,67.25
2023-03-01T04:20:29.471Z,66.87
2023-03-01T04:23:14.211Z,66.86
2023-03-01T04:25:54.690Z,66.91
2023-03-01T04:28:33.804Z,67.03
2023-03-01T04:31:13.931Z,67.12
2023-03-01T04:33:45.414Z,67.19
2023-03-01T04:36:13.429Z,66.94
2023-03-01T04:38:40.560Z,67.14
2023-03-01T04:41:09.431Z,67.42
2023-03-01T04:43:36.755Z,67.22
2023-03-01T04:46:05.187Z,67.27
2023-03-01T04:48:32.872Z,67.27
2023-03-01T04:51:00.610Z,67.35
2023-03-01T04:53:29.316Z,67.47
2023-03-01T04:55:57.421Z,67.33
2023-03-01T04:58:28.194Z,67.65
2023-03-01T05:00:54.892Z,67.70
2023-03-01T05:03:22.293Z,67.82
2023-03-01T05:05:50.764Z,67.95
2023-03-01T05:08:21.783Z,67.72
2023-03-01T05:10:53.361Z,68.11
2023-03-01T05:13:23.864Z,68.11
2023-03-01T05:16:01.967Z,68.20
2023-03-01T05:18:31.473Z,67.91
2023-03-01T05:21:05.309Z,67.97
2023-03-01T05:23:33.248Z,67.96
2023-03-01T05:26:01.030Z,67.81
2023-03-01T05:28:29.252Z,68.00
2023-03-01T05:30:56.522Z,68.26
2023-03-01T05:33:23.417Z,67.90
2023-03-01T05:35:51.072Z,67.89
2023-03-01T05:38:17.768Z,68.21
2023-03-01T05:40:45.923Z,68.13
2023-03-01T05:43:13.797Z,67.96
2023-03-01T05:45:41.734Z,68.32
2023-03-01T05:48:09.390Z,68.05
2023-03-01T05:50:39.092Z,67.91
2023-03-01T05:53:12.350Z,68.08
2023-03-01T05:55:40.274Z,68.25
2023-03-01T05:58:10.288Z,68.32
2023-03-01T06:00:37.020Z,68.48
2023-03-01T06:03:04.305Z,68.65
2023-03-01T06:05:36.925Z,68.76
2023-03-01T06:08:04.042Z,68.90
2023-03-01T06:10:30.900Z,69.26
2023-03-01T06:12:58.141Z,69.40
2023-03-01T06:15:25.924Z,69.67
2023-03-01T06:17:52.725Z,69.91
2023-03-01T06:20:25.379Z,70.02
2023-03-01T06:22:59.169Z,70.27
2023-03-01T06:25:27.238Z,70.35
2023-03-01T06:27:53.945Z,70.72
2023-03-01T06:30:22.339Z,70.64
2023-03-01T06:32:49.603Z,70.69
2023-03-01T06:35:19.008Z,70.77
2023-03-01T06:37:46.967Z,70.53
2023-03-01T06:40:15.099Z,70.63
2023-03-01T06:42:50.667Z,70.09
2023-03-01T06:45:19.410Z,70.26
2023-03-01T06:47:46.196Z,70.46
2023-03-01T06:50:13.374Z,70.37
2023-03-01T06:52:40.277Z,70.44
2023-03-01T06:55:07.768Z,70.07
2023-03-01T06:57:34.513Z,70.23
2023-03-01T07:00:01.191Z,70.02
2023-03-01T07:02:27.902Z,69.94
2023-03-01T07:04:54.590Z,69.40
2023-03-01T07:07:21.438Z,69.50
2023-03-01T07:09:49.766Z,69.69
2023-03-01T07:12:16.628Z,69.42
2023-03-01T07:14:45.011Z,69.54
2023-03-01T07:17:11.620Z,69.73
2023-03-01T07:19:38.304Z,69.83
2023-03-01T07:22:05.476Z,69.60
2023-03-01T07:24:32.196Z,69.42
2023-03-01T07:26:58.870Z,69.68
2023-03-01T07:29:25.485Z,69.86
2023-03-01T07:31:52.319Z,69.90
2023-03-01T07:34:19.007Z,70.01
2023-03-01T07:36:50.811Z,69.62
2023-03-01T07:39:18.693Z,69.47
2023-03-01T07:41:46.310Z,69.42
2023-03-01T07:44:13.086Z,68.98
2023-03-01T07:46:39.684Z,69.05
2023-03-01T07:49:06.521Z,68.79
2023-03-01T07:51:33.228Z,69.08
2023-03-01T07:53:59.936Z,68.79
2023-03-01T07:56:26.600Z,68.66
2023-03-01T07:58:53.441Z,68.65
2023-03-01T08:01:21.748Z,68.38
2023-03-01T08:03:49.039Z,68.18
2023-03-01T08:06:18.698Z,67.66
2023-03-01T08:08:46.049Z,67.10
2023-03-01T08:11:14.952Z,67.12
2023-03-01T08:13:41.975Z,66.85
2023-03-01T08:16:12.081Z,66.96
2023-03-01T08:18:38.863Z,66.73
2023-03-01T08:21:07.961Z,66.80
2023-03-01T08:23:35.210Z,66.93
2023-03-01T08:26:19.586Z,66.80
2023-03-01T08:28:47.015Z,66.72
2023-03-01T08:31:38.899Z,66.57
2023-03-01T08:34:09.054Z,66.60
2023-03-01T08:36:41.402Z,65.90
2023-03-01T08:39:09.480Z,65.49
2023-03-01T08:41:36.321Z,65.10
2023-03-01T08:44:04.236Z,65.07
2023-03-01T08:46:34.396Z,65.08
2023-03-01T08:49:01.274Z,65.27
2023-03-01T08:51:28.267Z,65.11
2023-03-01T08:53:56.438Z,64.50
2023-03-01T08:56:23.102Z,64.04
2023-03-01T08:58:50.492Z,63.60
2023-03-01T09:01:19.611Z,63.08
2023-03-01T09:03:47.063Z,62.46
2023-03-01T09:06:14.950Z,62.12
2023-03-01T09:08:46.955Z,61.71
2023-03-01T09:11:17.070Z,61.64
2023-03-01T09:13:44.636Z,61.45
2023-03-01T09:16:13.181Z,61.23
2023-03-01T09:18:39.837Z,61.04
2023-03-01T09:21:11.720Z,60.52
2023-03-01T09:23:43.271Z,59.78
2023-03-01T09:26:11.933Z,59.34
2023-03-01T09:28:39.303Z,59.25
2023-03-01T09:31:19.123Z,59.23
2023-03-01T09:33:53.875Z,59.09
2023-03-01T09:36:26.582Z,58.54
2023-03-01T09:39:10.105Z,58.32
2023-03-01T09:41:47.856Z,58.13
2023-03-01T09:44:23.820Z,57.68
2023-03-01T09:46:50.736Z,57.48
2023-03-01T09:49:23.021Z,57.42
2023-03-01T09:52:04.897Z,57.46
2023-03-01T09:54:31.639Z,56.86
2023-03-01T09:57:08.131Z,56.83
2023-03-01T09:59:46.385Z,56.72
2023-03-01T10:02:25.429Z,56.23
2023-03-01T10:04:55.767Z,56.25
2023-03-01T10:07:33.892Z,56.16
2023-03-01T10:10:01.585Z,56.14
2023-03-01T10:12:34.444Z,56.21
2023-03-01T10:15:13.647Z,56.06
2023-03-01T10:17:56.511Z,55.52
2023-03-01T10:20:25.598Z,55.28
2023-03-01T10:22:53.722Z,54.86
2023-03-01T10:25:38.255Z,54.59
2023-03-01T10:28:18.862Z,54.42
2023-03-01T10:30:46.417Z,54.08
2023-03-01T10:33:23.451Z,53.80
2023-03-01T10:35:50.946Z,53.71
2023-03-01T10:38:18.784Z,53.81
2023-03-01T10:40:59.445Z,53.20
2023-03-01T10:43:45.785Z,52.88
2023-03-01T10:46:29.300Z,52.36
2023-03-01T10:49:23.206Z,51.64
2023-03-01T10:51:52.754Z,51.06
2023-03-01T10:54:21.550Z,50.44
2023-03-01T10:56:50.718Z,49.35
2023-03-01T10:59:35.669Z,48.52
2023-03-01T11:02:29.665Z,47.14
2023-03-01T11:05:20.675Z,45.91
2023-03-01T11:07:51.495Z,45.02
2023-03-01T11:10:23.855Z,44.19
2023-03-01T11:12:52.478Z,43.69
2023-03-01T11:15:30.155Z,43.60
2023-03-01T11:18:09.008Z,42.28
2023-03-01T11:20:41.487Z,41.90
2023-03-01T11:23:15.398Z,41.79
2023-03-01T11:25:49.365Z,41.29
2023-03-01T11:28:18.883Z,40.45
2023-03-01T11:31:07.351Z,40.60
2023-03-01T11:33:38.196Z,39.63
2023-03-01T11:36:25.086Z,39.67
2023-03-01T11:38:51.957Z,39.24
2023-03-01T11:41:26.072Z,38.96
2023-03-01T11:44:11.988Z,38.82
2023-03-01T11:46:58.159Z,38.67
2023-03-01T11:49:43.583Z,38.33
2023-03-01T11:52:20.571Z,37.81
2023-03-01T11:55:05.461Z,37.62
2023-03-01T11:58:07.738Z,37.15
2023-03-01T12:00:56.092Z,36.66
2023-03-01T12:03:48.106Z,35.97
2023-03-01T12:06:57.565Z,36.06
2023-03-01T12:09:46.200Z,35.62
2023-03-01T12:12:26.996Z,34.96
2023-03-01T12:15:09.256Z,35.17
2023-03-01T12:17:35.912Z,35.56
2023-03-01T12:20:27.522Z,35.64
2023-03-01T12:23:20.475Z,34.83
2023-03-01T12:26:06.913Z,34.71
2023-03-01T12:28:47.295Z,34.96
2023-03-01T12:31:18.338Z,34.56
2023-03-01T12:33:49.972Z,34.63
2023-03-01T12:36:29.208Z,35.23
2023-03-01T12:39:28.592Z,35.01
2023-03-01T12:42:27.358Z,34.89
2023-03-01T12:45:17.896Z,34.31
2023-03-01T12:48:07.454Z,34.38
2023-03-01T12:50:45.739Z,34.48
2023-03-01T12:53:24.804Z,34.27
2023-03-01T12:55:53.858Z,34.62
2023-03-01T12:58:36.985Z,34.45
2023-03-01T13:01:34.519Z,34.04
2023-03-01T13:04:04.294Z,34.37
2023-03-01T13:06:44.178Z,34.21
2023-03-01T13:09:22.397Z,33.98
2023-03-01T13:11:52.225Z,34.20
2023-03-01T13:14:21.968Z,33.34
2023-03-01T13:16:52.601Z,33.06
2023-03-01T13:19:24.343Z,33.70
2023-03-01T13:22:01.148Z,34.17
2023-03-01T13:24:35.263Z,33.91
2023-03-01T13:27:08.073Z,34.03
2023-03-01T13:29:54.126Z,34.48
2023-03-01T13:32:43.691Z,34.08
2023-03-01T13:35:21.034Z,34.12
2023-03-01T13:37:48.066Z,34.14
2023-03-01T13:40:20.621Z,34.42
2023-03-01T13:42:59.224Z,33.80
2023-03-01T13:45:43.780Z,33.99
2023-03-01T13:48:21.701Z,34.01
2023-03-01T13:51:01.941Z,34.00
2023-03-01T13:53:31.984Z,33.92
2023-03-01T13:56:08.464Z,33.54
2023-03-01T13:58:45.898Z,33.42
2023-03-01T14:01:24.534Z,32.57
2023-03-01T14:03:51.467Z,32.07
2023-03-01T14:06:22.542Z,32.32
2023-03-01T14:08:51.965Z,32.14
2023-03-01T14:11:41.993Z,32.31
2023-03-01T14:14:22.395Z,32.67
2023-03-01T14:17:45.186Z,33.28
2023-03-01T14:20:19.858Z,32.66
2023-03-01T14:22:47.629Z,32.48
2023-03-01T14:25:32.376Z,31.75
2023-03-01T14:28:00.143Z,32.52
2023-03-01T14:30:32.475Z,32.96
2023-03-01T14:33:04.592Z,32.85
2023-03-01T14:35:33.325Z,32.85
2023-03-01T14:38:02.596Z,32.36
2023-03-01T14:40:37.141Z,31.87
2023-03-01T14:43:12.980Z,31.96
2023-03-01T14:45:39.725Z,31.28
2023-03-01T14:48:07.621Z,30.79
2023-03-01T14:50:36.110Z,31.04
2023-03-01T14:53:06.144Z,31.35
2023-03-01T14:55:36.080Z,31.31
2023-03-01T14:58:14.633Z,31.35
2023-03-01T15:01:04.657Z,32.00
2023-03-01T15:03:40.303Z,31.98
2023-03-01T15:06:08.490Z,31.57
2023-03-01T15:08:36.676Z,31.54
2023-03-01T15:11:25.642Z,31.37
2023-03-01T15:13:53.224Z,32.30
2023-03-01T15:16:26.101Z,31.54
2023-03-01T15:18:58.358Z,31.20
2023-03-01T15:21:32.470Z,31.08
2023-03-01T15:24:21.646Z,30.79
2023-03-01T15:26:58.807Z,30.16
2023-03-01T15:29:31.108Z,29.90
2023-03-01T15:32:05.187Z,29.63
2023-03-01T15:34:38.040Z,30.05
2023-03-01T15:37:07.470Z,29.57
2023-03-01T15:39:40.972Z,29.41
2023-03-01T15:42:26.403Z,29.77
2023-03-01T15:45:11.943Z,29.58
2023-03-01T15:47:41.121Z,29.55
2023-03-01T15:50:20.546Z,29.53
2023-03-01T15:52:47.298Z,30.07
2023-03-01T15:55:19.489Z,30.14
2023-03-01T15:57:46.211Z,30.36
2023-03-01T16:00:14.588Z,30.91
2023-03-01T16:02:42.997Z,31.50
2023-03-01T16:05:36.931Z,31.79
2023-03-01T16:08:08.679Z,31.88
2023-03-01T16:10:36.353Z,31.21
2023-03-01T16:13:03.498Z,31.40
2023-03-01T16:15:33.331Z,30.77
2023-03-01T16:18:00.379Z,30.71
2023-03-01T16:20:29.351Z,30.44
2023-03-01T16:23:08.463Z,30.03
2023-03-01T16:25:36.335Z,30.16
2023-03-01T16:28:06.119Z,29.84
2023-03-01T16:30:33.597Z,30.06
2023-03-01T16:33:01.390Z,29.98
2023-03-01T16:35:28.332Z,30.33
2023-03-01T16:37:55.140Z,30.89
2023-03-01T16:40:25.594Z,32.26
2023-03-01T16:42:52.871Z,32.72
2023-03-01T16:45:28.972Z,33.78
2023-03-01T16:47:56.306Z,34.47
2023-03-01T16:50:23.824Z,35.10
2023-03-01T16:52:50.661Z,35.93
2023-03-01T16:55:17.426Z,36.72
2023-03-01T16:57:44.137Z,37.32
2023-03-01T17:00:12.342Z,37.51
2023-03-01T17:02:39.185Z,38.14
2023-03-01T17:05:06.571Z,38.25
2023-03-01T17:07:36.308Z,38.47
2023-03-01T17:10:04.756Z,39.04
2023-03-01T17:12:35.688Z,39.48
2023-03-01T17:15:02.481Z,39.28
2023-03-01T17:17:29.234Z,39.66
2023-03-01T17:19:55.957Z,39.44
2023-03-01T17:22:22.676Z,40.17
2023-03-01T17:24:49.580Z,40.36
2023-03-01T17:27:17.523Z,40.68
2023-03-01T17:29:44.416Z,40.97
2023-03-01T17:32:11.136Z,40.97
2023-03-01T17:34:37.956Z,40.88
2023-03-01T17:37:04.752Z,41.43
2023-03-01T17:39:36.340Z,41.19
2023-03-01T17:42:05.353Z,41.33
2023-03-01T17:44:34.784Z,41.31
2023-03-01T17:47:02.897Z,41.43
2023-03-01T17:49:29.892Z,41.69
2023-03-01T17:51:57.108Z,41.93
2023-03-01T17:54:24.266Z,41.93
2023-03-01T17:56:51.777Z,41.83
2023-03-01T17:59:18.736Z,41.80
2023-03-01T18:01:45.801Z,42.36
2023-03-01T18:04:12.556Z,42.61
2023-03-01T18:06:41.037Z,42.42
2023-03-01T18:09:08.189Z,42.34
2023-03-01T18:11:36.087Z,42.65
2023-03-01T18:14:03.167Z,43.09
2023-03-01T18:16:32.230Z,43.10
2023-03-01T18:18:59.259Z,42.97
2023-03-01T18:21:32.883Z,43.45
2023-03-01T18:23:59.850Z,43.43
2023-03-01T18:26:27.932Z,43.68
2023-03-01T18:28:58.461Z,43.69
2023-03-01T18:31:25.579Z,43.70
2023-03-01T18:33:54.854Z,44.05
2023-03-01T18:36:30.010Z,44.23
2023-03-01T18:38:57.086Z,44.24
2023-03-01T18:41:25.566Z,44.50
2023-03-01T18:43:53.034Z,44.18
2023-03-01T18:46:23.106Z,44.32
2023-03-01T18:48:49.983Z,44.40
2023-03-01T18:51:19.409Z,44.50
2023-03-01T18:53:46.176Z,44.77
2023-03-01T18:56:13.156Z,44.77
2023-03-01T18:58:42.906Z,44.67
2023-03-01T19:01:15.565Z,45.13
2023-03-01T19:03:42.550Z,45.28
2023-03-01T19:06:09.394Z,45.20
2023-03-01T19:08:36.046Z,44.95
2023-03-01T19:11:05.214Z,45.22
2023-03-01T19:13:32.745Z,45.49
2023-03-01T19:16:07.825Z,45.68
2023-03-01T19:18:35.493Z,45.87
2023-03-01T19:21:04.548Z,45.42
2023-03-01T19:23:35.137Z,45.65
2023-03-01T19:26:13.927Z,45.67
2023-03-01T19:28:41.041Z,45.68
2023-03-01T19:31:10.676Z,45.87
2023-03-01T19:33:40.268Z,46.23
2023-03-01T19:36:10.821Z,45.98
2023-03-01T19:38:38.239Z,46.23
2023-03-01T19:41:10.918Z,46.56
2023-03-01T19:43:38.122Z,46.74
2023-03-01T19:46:05.180Z,46.77
2023-03-01T19:48:31.923Z,46.65
2023-03-01T19:50:58.799Z,46.55
2023-03-01T19:53:26.130Z,47.11
2023-03-01T19:56:00.422Z,46.88
2023-03-01T19:58:28.656Z,46.86
2023-03-01T20:01:01.137Z,46.98
2023-03-01T20:03:33.720Z,47.21
2023-03-01T20:06:02.756Z,47.22
2023-03-01T20:08:30.757Z,47.34
2023-03-01T20:11:06.096Z,47.67
2023-03-01T20:13:33.271Z,47.91
2023-03-01T20:16:00.245Z,47.87
2023-03-01T20:18:27.384Z,47.82
2023-03-01T20:20:54.097Z,47.43
2023-03-01T20:23:21.522Z,47.83
2023-03-01T20:25:51.635Z,47.90
2023-03-01T20:28:19.305Z,47.73
2023-03-01T20:30:46.370Z,48.07
2023-03-01T20:33:13.010Z,47.99
2023-03-01T20:35:43.171Z,48.24
2023-03-01T20:38:10.117Z,48.32
2023-03-01T20:40:37.794Z,48.48
2023-03-01T20:43:04.588Z,48.56
2023-03-01T20:45:31.205Z,48.56
2023-03-01T20:47:57.795Z,48.84
2023-03-01T20:50:24.400Z,48.73
2023-03-01T20:52:51.001Z,49.13
2023-03-01T20:55:17.795Z,49.31
2023-03-01T20:57:44.865Z,49.19
2023-03-01T21:00:11.952Z,49.09
2023-03-01T21:02:41.486Z,49.30
2023-03-01T21:05:08.616Z,48.84
2023-03-01T21:07:35.398Z,49.21
2023-03-01T21:10:02.452Z,49.32
2023-03-01T21:12:29.141Z,49.63
2023-03-01T21:14:55.774Z,49.80
2023-03-01T21:17:22.440Z,49.85
2023-03-01T21:19:50.836Z,49.67
2023-03-01T21:22:17.816Z,50.02
2023-03-01T21:24:45.004Z,49.73
2023-03-01T21:27:11.888Z,50.16
2023-03-01T21:29:40.465Z,49.91
2023-03-01T21:32:08.685Z,50.11
2023-03-01T21:34:36.272Z,50.41
2023-03-01T21:37:03.784Z,50.65
2023-03-01T21:39:30.562Z,50.53
2023-03-01T21:42:01.557Z,50.57
2023-03-01T21:44:29.619Z,50.40
2023-03-01T21:46:56.483Z,50.45
2023-03-01T21:49:23.238Z,50.49
2023-03-01T21:51:49.953Z,50.45
2023-03-01T21:54:18.394Z,50.72
2023-03-01T21:56:45.439Z,50.71
2023-03-01T21:59:23.055Z,50.47
2023-03-01T22:01:51.659Z,50.42
2023-03-01T22:04:18.820Z,50.85
2023-03-01T22:06:46.598Z,50.88
2023-03-01T22:09:14.415Z,50.55
2023-03-01T22:11:44.111Z,50.76
2023-03-01T22:14:13.602Z,50.92
2023-03-01T22:16:42.989Z,50.96
2023-03-01T22:19:09.944Z,51.04
2023-03-01T22:21:39.566Z,51.34
2023-03-01T22:24:06.875Z,51.18
2023-03-01T22:26:39.700Z,51.14
2023-03-01T22:29:12.366Z,51.38
2023-03-01T22:31:39.938Z,51.23
2023-03-01T22:34:06.931Z,51.03
2023-03-01T22:36:34.449Z,50.97
2023-03-01T22:39:02.280Z,51.25
2023-03-01T22:41:30.234Z,51.33
2023-03-01T22:43:57.128Z,51.19
2023-03-01T22:46:27.109Z,51.59
2023-03-01T22:48:53.895Z,51.86
2023-03-01T22:51:24.125Z,51.99
2023-03-01T22:53:51.368Z,51.62
2023-03-01T22:56:23.822Z,51.46
2023-03-01T22:58:50.764Z,51.86
2023-03-01T23:01:22.613Z,51.96
2023-03-01T23:03:50.064Z,51.92
2023-03-01T23:06:18.163Z,51.57
2023-03-01T23:08:49.722Z,51.63
2023-03-01T23:11:17.986Z,51.56
2023-03-01T23:13:44.658Z,51.66
2023-03-01T23:16:14.974Z,51.80
2023-03-01T23:18:41.812Z,52.00
2023-03-01T23:21:19.114Z,51.81
2023-03-01T23:23:47.332Z,51.93
2023-03-01T23:26:15.009Z,52.29
2023-03-01T23:28:42.385Z,52.05
2023-03-01T23:31:11.446Z,52.27
2023-03-01T23:33:38.116Z,52.16
2023-03-01T23:36:15.903Z,51.97
2023-03-01T23:38:42.682Z,52.45
2023-03-01T23:41:13.880Z,52.60
2023-03-01T23:43:40.569Z,52.58
2023-03-01T23:46:07.297Z,52.38
2023-03-01T23:48:34.317Z,52.35
2023-03-01T23:51:05.252Z,52.25
2023-03-01T23:53:31.887Z,52.76
2023-03-01T23:55:58.594Z,52.36
2023-03-01T23:58:28.580Z,52.45
